Time;durP1;ratioP1;P1;durP2;ratioP2;P2;SDS_P1;SDS_P2;PMS_P1;PMS_P2;Temp;Humidity;BMP_temperature;BMP_pressure;BME280_temperature;BME280_humidity;BME280_pressure;Samples;Min_cycle;Max_cycle;Signal;HPM_P1;HPM_P2
2022/06/06 00:02:44;;;;;;;5.00;2.10;;;;;;;;;;10375510;28;20041;-42
2022/06/06 00:07:45;;;;;;;3.83;2.22;;;;;;;;;;10362322;28;20156;-42
2022/06/06 00:12:45;;;;;;;2.65;2.05;;;;;;;;;;10376327;28;20089;-42
2022/06/06 00:17:46;;;;;;;5.53;2.22;;;;;;;;;;10366731;28;20034;-42
2022/06/06 00:22:47;;;;;;;2.55;2.00;;;;;;;;;;10370105;28;20021;-42
2022/06/06 00:27:47;;;;;;;4.93;2.28;;;;;;;;;;10360259;28;20037;-42
2022/06/06 00:38:07;;;;;;;4.90;2.00;;;;;;;;;;10366895;28;20065;-43
2022/06/06 00:43:09;;;;;;;2.92;2.17;;;;;;;;;;10367748;28;20053;-43
2022/06/06 00:48:22;;;;;;;5.38;1.75;;;;;;;;;;10366432;28;20109;-43
2022/06/06 00:53:58;;;;;;;2.30;1.90;;;;;;;;;;10367594;28;20041;-42
2022/06/06 00:59:09;;;;;;;7.53;2.00;;;;;;;;;;10376286;28;20100;-43
2022/06/06 01:04:12;;;;;;;2.03;1.75;;;;;;;;;;10375489;28;20034;-43
2022/06/06 01:09:15;;;;;;;2.63;1.58;;;;;;;;;;10371154;28;20060;-43
2022/06/06 01:14:20;;;;;;;2.72;1.70;;;;;;;;;;10370438;28;20040;-43
2022/06/06 01:19:34;;;;;;;3.72;2.08;;;;;;;;;;10368046;28;20042;-45
2022/06/06 01:25:06;;;;;;;2.10;1.90;;;;;;;;;;10363973;28;20050;-42
2022/06/06 01:30:18;;;;;;;3.90;1.75;;;;;;;;;;10359407;28;20037;-43
2022/06/06 01:35:39;;;;;;;3.13;1.92;;;;;;;;;;10374058;28;20034;-43
2022/06/06 01:41:01;;;;;;;3.10;1.60;;;;;;;;;;10368925;28;20030;-42
2022/06/06 01:46:11;;;;;;;2.30;1.80;;;;;;;;;;10378183;28;20409;-43
2022/06/06 01:51:18;;;;;;;3.50;1.85;;;;;;;;;;10372162;28;20389;-42
2022/06/06 01:56:27;;;;;;;2.45;1.83;;;;;;;;;;10384997;28;20100;-41
2022/06/06 02:01:28;;;;;;;2.00;1.90;;;;;;;;;;10371979;28;20089;-41
2022/06/06 02:06:28;;;;;;;5.53;2.05;;;;;;;;;;10386840;28;20038;-41
2022/06/06 02:11:29;;;;;;;11.40;1.63;;;;;;;;;;10361892;28;20386;-41
2022/06/06 02:16:30;;;;;;;2.72;1.55;;;;;;;;;;10373091;28;20034;-41
2022/06/06 02:21:32;;;;;;;3.65;1.95;;;;;;;;;;10370970;28;20025;-41
2022/06/06 02:26:33;;;;;;;4.65;1.67;;;;;;;;;;10386895;28;20052;-41
2022/06/06 02:31:37;;;;;;;4.32;1.73;;;;;;;;;;10376682;28;20036;-41
2022/06/06 02:36:38;;;;;;;1.70;1.60;;;;;;;;;;10371643;28;20623;-41
2022/06/06 02:41:39;;;;;;;5.00;1.80;;;;;;;;;;10377878;28;20034;-41
2022/06/06 02:46:40;;;;;;;3.28;1.70;;;;;;;;;;10371494;28;20030;-41
2022/06/06 02:51:40;;;;;;;1.65;1.50;;;;;;;;;;10378857;28;20022;-42
2022/06/06 02:56:41;;;;;;;1.50;1.33;;;;;;;;;;10371706;28;20037;-41
2022/06/06 03:01:42;;;;;;;2.33;1.42;;;;;;;;;;10368878;28;20047;-43
2022/06/06 03:07:02;;;;;;;4.03;1.40;;;;;;;;;;10368829;28;20033;-42
2022/06/06 03:12:20;;;;;;;2.63;1.45;;;;;;;;;;10356664;28;20030;-41
2022/06/06 03:23:33;;;;;;;5.97;1.63;;;;;;;;;;10361677;28;20034;-42
2022/06/06 03:28:49;;;;;;;1.50;1.40;;;;;;;;;;10376421;28;20153;-41
2022/06/06 03:34:27;;;;;;;1.65;1.45;;;;;;;;;;10355773;28;20033;-42
2022/06/06 03:39:32;;;;;;;2.00;1.50;;;;;;;;;;10358713;28;20073;-41
2022/06/06 03:44:42;;;;;;;5.22;1.50;;;;;;;;;;10367924;28;20097;-42
2022/06/06 03:50:08;;;;;;;2.47;1.48;;;;;;;;;;10368294;28;20393;-42
2022/06/06 03:55:30;;;;;;;1.60;1.40;;;;;;;;;;10384511;28;20389;-42
2022/06/06 04:00:33;;;;;;;4.53;1.90;;;;;;;;;;10367519;28;20084;-42
2022/06/06 04:05:38;;;;;;;2.58;1.63;;;;;;;;;;10358701;28;20087;-41
2022/06/06 04:11:25;;;;;;;1.58;1.48;;;;;;;;;;10371595;28;20030;-42
2022/06/06 04:16:59;;;;;;;1.83;1.50;;;;;;;;;;10366558;28;20038;-42
2022/06/06 04:22:23;;;;;;;3.22;1.50;;;;;;;;;;10366907;28;20117;-41
2022/06/06 04:28:01;;;;;;;1.85;1.65;;;;;;;;;;10354763;28;20526;-41
2022/06/06 04:33:27;;;;;;;8.57;1.60;;;;;;;;;;10361116;28;20494;-41
2022/06/06 04:39:01;;;;;;;2.75;1.60;;;;;;;;;;10359726;28;20083;-42
2022/06/06 04:44:52;;;;;;;3.05;1.20;;;;;;;;;;10365394;28;20619;-42
2022/06/06 04:49:56;;;;;;;2.33;1.30;;;;;;;;;;10348768;28;20436;-42
2022/06/06 04:54:57;;;;;;;6.85;1.25;;;;;;;;;;10365659;28;20053;-43
2022/06/06 05:00:00;;;;;;;1.95;1.40;;;;;;;;;;10348984;28;20117;-42
2022/06/06 05:05:00;;;;;;;2.45;1.40;;;;;;;;;;10370306;28;20034;-42
2022/06/06 05:10:07;;;;;;;4.72;2.05;;;;;;;;;;10363979;28;20022;-43
2022/06/06 05:15:16;;;;;;;2.30;1.45;;;;;;;;;;10354140;28;20100;-42
2022/06/06 05:20:33;;;;;;;6.13;1.70;;;;;;;;;;10355426;28;20055;-42
2022/06/06 05:25:42;;;;;;;4.72;1.88;;;;;;;;;;10358311;28;20502;-42
2022/06/06 05:30:56;;;;;;;7.80;1.77;;;;;;;;;;10359798;28;20112;-43
2022/06/06 05:36:28;;;;;;;7.63;1.67;;;;;;;;;;10351901;28;20040;-42
2022/06/06 05:42:05;;;;;;;4.22;1.77;;;;;;;;;;10382471;28;20085;-41
2022/06/06 05:47:38;;;;;;;4.00;1.70;;;;;;;;;;10358305;28;20045;-41
2022/06/06 05:52:50;;;;;;;6.28;1.65;;;;;;;;;;10390038;28;20053;-42
2022/06/06 05:58:15;;;;;;;13.23;1.98;;;;;;;;;;10353525;28;20144;-41
2022/06/06 06:04:00;;;;;;;16.05;1.95;;;;;;;;;;10359227;28;20068;-42
2022/06/06 06:09:18;;;;;;;10.70;1.83;;;;;;;;;;10353033;28;20133;-42
2022/06/06 06:14:40;;;;;;;5.20;1.70;;;;;;;;;;10368970;28;20482;-44
2022/06/06 06:19:47;;;;;;;3.47;1.33;;;;;;;;;;10362770;28;20437;-44
2022/06/06 06:24:50;;;;;;;2.35;1.40;;;;;;;;;;10375347;28;20042;-42
2022/06/06 06:29:51;;;;;;;5.45;1.35;;;;;;;;;;10375033;28;20045;-43
2022/06/06 06:35:01;;;;;;;8.10;1.60;;;;;;;;;;10380160;28;20433;-43
2022/06/06 06:40:48;;;;;;;4.97;1.70;;;;;;;;;;10369125;28;20038;-42
2022/06/06 06:46:00;;;;;;;7.20;1.40;;;;;;;;;;10367387;28;20040;-42
2022/06/06 06:51:22;;;;;;;4.22;1.60;;;;;;;;;;10374736;28;20024;-42
2022/06/06 06:56:42;;;;;;;3.30;1.40;;;;;;;;;;10384363;28;20073;-42
2022/06/06 07:08:32;;;;;;;2.92;1.40;;;;;;;;;;10384264;28;20026;-42
2022/06/06 07:13:43;;;;;;;6.90;1.40;;;;;;;;;;10378313;28;20029;-41
2022/06/06 07:18:47;;;;;;;3.45;1.50;;;;;;;;;;10359519;28;20129;-42
2022/06/06 07:23:49;;;;;;;3.90;1.30;;;;;;;;;;10368820;28;20518;-41
2022/06/06 07:28:49;;;;;;;5.95;1.27;;;;;;;;;;10370170;28;20474;-41
2022/06/06 07:34:32;;;;;;;4.30;1.40;;;;;;;;;;10370448;28;20138;-42
2022/06/06 07:39:39;;;;;;;3.17;1.30;;;;;;;;;;10357267;28;20374;-42
2022/06/06 07:44:57;;;;;;;3.63;1.15;;;;;;;;;;10369308;28;20406;-42
2022/06/06 07:50:06;;;;;;;5.95;1.50;;;;;;;;;;10369647;28;20029;-42
2022/06/06 07:55:31;;;;;;;2.67;1.30;;;;;;;;;;10367722;28;20025;-42
2022/06/06 08:00:32;;;;;;;3.90;1.60;;;;;;;;;;10368865;28;20083;-41
2022/06/06 08:05:54;;;;;;;5.13;1.55;;;;;;;;;;10367515;28;20025;-43
2022/06/06 08:11:07;;;;;;;3.40;1.50;;;;;;;;;;10367869;28;20083;-42
2022/06/06 08:16:50;;;;;;;1.95;1.17;;;;;;;;;;10368255;28;20026;-42
2022/06/06 08:21:50;;;;;;;3.05;1.77;;;;;;;;;;10365008;28;20033;-42
2022/06/06 08:26:53;;;;;;;3.25;1.40;;;;;;;;;;10368132;28;20421;-42
2022/06/06 08:31:54;;;;;;;5.43;1.50;;;;;;;;;;10366333;28;20486;-42
2022/06/06 08:37:41;;;;;;;4.22;1.20;;;;;;;;;;10367385;28;20030;-42
2022/06/06 08:43:22;;;;;;;2.60;1.45;;;;;;;;;;10367701;28;20087;-42
2022/06/06 08:49:00;;;;;;;5.65;1.50;;;;;;;;;;10371389;28;20034;-42
2022/06/06 08:54:58;;;;;;;4.38;1.48;;;;;;;;;;10367041;28;20485;-43
2022/06/06 09:00:20;;;;;;;6.07;1.55;;;;;;;;;;10280394;28;20114;-42
2022/06/06 09:06:02;;;;;;;4.38;1.60;;;;;;;;;;10264381;28;20038;-42
2022/06/06 09:12:27;;;;;;;5.22;1.27;;;;;;;;;;10277269;28;20122;-42
2022/06/06 09:18:22;;;;;;;3.35;1.65;;;;;;;;;;10265004;28;20066;-42
2022/06/06 09:24:27;;;;;;;4.22;1.27;;;;;;;;;;10277620;28;20254;-42
2022/06/06 09:30:08;;;;;;;7.00;1.73;;;;;;;;;;10283767;28;20497;-42
2022/06/06 09:35:39;;;;;;;5.38;1.48;;;;;;;;;;10374097;28;20038;-43
2022/06/06 09:40:58;;;;;;;3.65;1.50;;;;;;;;;;10373824;28;20052;-42
2022/06/06 09:46:39;;;;;;;2.05;1.45;;;;;;;;;;10373597;28;20087;-42
2022/06/06 09:52:12;;;;;;;2.95;1.33;;;;;;;;;;10364054;28;20032;-42
2022/06/06 10:04:19;;;;;;;4.28;1.30;;;;;;;;;;10369375;28;20018;-42
2022/06/06 10:09:47;;;;;;;2.58;1.33;;;;;;;;;;10372658;28;20033;-42
2022/06/06 10:15:15;;;;;;;;;;;;;;;;;;10373325;28;20022;-42
2022/06/06 10:20:42;;;;;;;4.95;1.30;;;;;;;;;;10360443;28;20425;-42
2022/06/06 10:26:04;;;;;;;2.08;1.20;;;;;;;;;;10359039;28;20176;-42
2022/06/06 10:31:13;;;;;;;2.05;1.25;;;;;;;;;;10360730;28;20494;-42
2022/06/06 10:36:20;;;;;;;9.77;1.45;;;;;;;;;;10371827;28;20022;-42
2022/06/06 10:41:43;;;;;;;5.03;1.55;;;;;;;;;;10370466;28;20477;-43
2022/06/06 10:46:46;;;;;;;3.30;1.58;;;;;;;;;;10370191;28;20034;-42
2022/06/06 10:52:02;;;;;;;4.57;1.50;;;;;;;;;;10373046;28;20029;-42
2022/06/06 10:57:17;;;;;;;3.22;1.20;;;;;;;;;;10369190;28;20037;-42
2022/06/06 11:02:49;;;;;;;8.70;1.52;;;;;;;;;;10371039;28;20436;-43
2022/06/06 11:07:55;;;;;;;3.08;1.50;;;;;;;;;;10355453;28;20108;-42
2022/06/06 11:13:36;;;;;;;3.78;1.38;;;;;;;;;;10370637;28;20576;-43
2022/06/06 11:19:13;;;;;;;5.60;1.48;;;;;;;;;;10369001;28;20037;-43
2022/06/06 11:24:40;;;;;;;5.05;1.50;;;;;;;;;;10361894;28;20497;-44
2022/06/06 11:30:09;;;;;;;2.83;1.50;;;;;;;;;;10368438;28;20489;-43
2022/06/06 11:35:15;;;;;;;3.08;1.25;;;;;;;;;;10371362;28;20034;-44
2022/06/06 11:40:42;;;;;;;2.42;1.50;;;;;;;;;;10369362;28;20571;-44
2022/06/06 11:46:28;;;;;;;2.78;1.60;;;;;;;;;;10353531;28;20034;-43
2022/06/06 11:51:51;;;;;;;3.65;1.30;;;;;;;;;;10365976;28;20072;-45
2022/06/06 11:57:33;;;;;;;4.43;1.60;;;;;;;;;;10359205;28;20029;-43
2022/06/06 12:02:45;;;;;;;4.72;1.30;;;;;;;;;;10366957;28;20022;-42
2022/06/06 12:08:23;;;;;;;3.20;1.60;;;;;;;;;;10362820;28;20525;-42
2022/06/06 12:13:41;;;;;;;1.92;1.20;;;;;;;;;;10367430;28;20029;-43
2022/06/06 12:19:09;;;;;;;4.53;1.65;;;;;;;;;;10367273;28;20025;-42
2022/06/06 12:25:06;;;;;;;5.30;1.30;;;;;;;;;;10361199;28;20069;-43
2022/06/06 12:30:28;;;;;;;4.80;1.40;;;;;;;;;;10361806;28;20049;-43
2022/06/06 12:35:49;;;;;;;2.67;1.52;;;;;;;;;;10357618;28;20037;-42
2022/06/06 12:41:37;;;;;;;6.93;1.50;;;;;;;;;;10355169;28;20485;-45
2022/06/06 12:46:46;;;;;;;4.95;2.17;;;;;;;;;;10349506;28;20113;-42
2022/06/06 12:52:17;;;;;;;3.03;1.50;;;;;;;;;;10358618;28;20397;-42
2022/06/06 12:57:42;;;;;;;7.93;1.60;;;;;;;;;;10367739;28;20615;-43
2022/06/06 13:03:05;;;;;;;3.42;1.27;;;;;;;;;;10382370;28;20030;-42
2022/06/06 13:08:33;;;;;;;5.00;1.65;;;;;;;;;;10401144;28;20053;-42
2022/06/06 13:13:34;;;;;;;;;;;;;;;;;;10358836;28;20438;-41
2022/06/06 13:19:03;;;;;;;3.92;1.40;;;;;;;;;;10374753;28;19943;-42
2022/06/06 13:24:31;;;;;;;7.20;1.92;;;;;;;;;;10363173;28;20046;-41
2022/06/06 13:29:35;;;;;;;1.88;1.35;;;;;;;;;;10382766;28;20042;-41
2022/06/06 13:35:08;;;;;;;7.50;1.55;;;;;;;;;;10372760;28;20033;-42
2022/06/06 13:40:45;;;;;;;5.10;1.45;;;;;;;;;;10373840;28;20027;-42
2022/06/06 13:46:07;;;;;;;3.20;1.47;;;;;;;;;;10361912;28;20479;-42
2022/06/06 13:51:16;;;;;;;3.70;1.75;;;;;;;;;;10360962;28;20030;-42
2022/06/06 13:56:41;;;;;;;4.53;1.33;;;;;;;;;;10372962;28;20041;-42
2022/06/06 14:01:54;;;;;;;2.28;1.30;;;;;;;;;;10371907;28;20034;-42
2022/06/06 14:07:32;;;;;;;2.33;1.33;;;;;;;;;;10370101;28;20038;-41
2022/06/06 14:13:18;;;;;;;2.67;1.30;;;;;;;;;;10356829;28;20109;-41
2022/06/06 14:18:31;;;;;;;2.88;1.40;;;;;;;;;;10353771;28;20065;-42
2022/06/06 14:23:35;;;;;;;3.40;1.52;;;;;;;;;;10352419;28;20388;-42
2022/06/06 14:28:40;;;;;;;3.13;1.20;;;;;;;;;;10364330;28;20030;-42
2022/06/06 14:33:57;;;;;;;2.53;1.35;;;;;;;;;;10367829;28;20023;-42
2022/06/06 14:39:03;;;;;;;4.07;1.30;;;;;;;;;;10363142;28;20103;-42
2022/06/06 14:44:04;;;;;;;2.55;1.20;;;;;;;;;;10381943;28;20040;-43
2022/06/06 14:49:05;;;;;;;5.53;1.30;;;;;;;;;;10369848;28;20164;-42
2022/06/06 14:54:09;;;;;;;4.05;0.98;;;;;;;;;;10371155;28;20092;-42
2022/06/06 14:59:46;;;;;;;2.03;1.00;;;;;;;;;;10369247;28;20030;-43
2022/06/06 15:05:23;;;;;;;3.50;1.52;;;;;;;;;;10362836;28;20495;-44
2022/06/06 15:10:49;;;;;;;3.72;1.55;;;;;;;;;;10366214;28;20033;-42
2022/06/06 15:15:53;;;;;;;3.40;1.50;;;;;;;;;;10368132;28;20036;-42
2022/06/06 15:20:56;;;;;;;3.60;1.60;;;;;;;;;;10368743;28;20025;-41
2022/06/06 15:26:28;;;;;;;3.15;1.85;;;;;;;;;;10364081;28;20390;-44
2022/06/06 15:31:41;;;;;;;1.88;1.50;;;;;;;;;;10366265;28;20529;-42
2022/06/06 15:37:08;;;;;;;7.55;1.67;;;;;;;;;;10363681;28;20018;-42
2022/06/06 15:42:27;;;;;;;4.43;1.88;;;;;;;;;;10366083;28;20389;-42
2022/06/06 15:48:12;;;;;;;1.77;1.38;;;;;;;;;;10372557;28;20030;-42
2022/06/06 15:53:50;;;;;;;4.85;1.60;;;;;;;;;;10365656;28;20076;-43
2022/06/06 15:59:16;;;;;;;2.95;1.60;;;;;;;;;;10364545;28;20061;-43
2022/06/06 16:04:26;;;;;;;7.63;2.03;;;;;;;;;;10365335;28;20042;-44
2022/06/06 16:09:48;;;;;;;9.63;1.75;;;;;;;;;;10375752;28;20125;-43
2022/06/06 16:15:03;;;;;;;3.70;1.83;;;;;;;;;;10375518;28;20034;-43
2022/06/06 16:20:29;;;;;;;5.65;1.77;;;;;;;;;;10367339;28;20032;-43
2022/06/06 16:25:44;;;;;;;3.28;1.60;;;;;;;;;;10365741;28;20501;-44
2022/06/06 16:30:52;;;;;;;5.88;1.70;;;;;;;;;;10361496;28;20025;-44
2022/06/06 16:35:58;;;;;;;4.28;1.60;;;;;;;;;;10365820;28;20604;-43
2022/06/06 16:41:15;;;;;;;5.30;1.65;;;;;;;;;;10370244;28;20030;-44
2022/06/06 16:52:13;;;;;;;2.15;1.42;;;;;;;;;;10366806;28;20105;-43
2022/06/06 16:57:48;;;;;;;4.28;1.88;;;;;;;;;;10363866;28;20025;-44
2022/06/06 17:03:00;;;;;;;2.10;1.33;;;;;;;;;;10355476;28;20253;-43
2022/06/06 17:08:28;;;;;;;5.97;1.55;;;;;;;;;;10363084;28;20115;-44
2022/06/06 17:13:42;;;;;;;2.28;1.50;;;;;;;;;;10382405;28;20030;-42
2022/06/06 17:19:00;;;;;;;6.80;1.58;;;;;;;;;;10356744;28;20474;-44
2022/06/06 17:24:19;;;;;;;2.55;1.27;;;;;;;;;;10330475;28;20101;-44
2022/06/06 17:29:40;;;;;;;2.25;1.42;;;;;;;;;;10382922;28;20988;-43
2022/06/06 17:34:56;;;;;;;4.10;1.65;;;;;;;;;;10363824;28;20034;-45
2022/06/06 17:40:00;;;;;;;2.72;1.40;;;;;;;;;;10357599;28;20030;-43
2022/06/06 17:45:42;;;;;;;7.65;1.80;;;;;;;;;;10364721;28;20052;-42
2022/06/06 17:50:51;;;;;;;2.80;1.50;;;;;;;;;;10367891;28;20033;-42
2022/06/06 17:56:02;;;;;;;3.20;1.17;;;;;;;;;;10360838;28;20469;-41
2022/06/06 18:01:19;;;;;;;5.05;1.40;;;;;;;;;;10357658;28;20025;-44
2022/06/06 18:07:25;;;;;;;3.47;1.20;;;;;;;;;;10364091;28;20544;-43
2022/06/06 18:12:53;;;;;;;2.20;1.25;;;;;;;;;;10367488;28;20462;-42
2022/06/06 18:18:35;;;;;;;1.73;1.13;;;;;;;;;;10370183;28;20365;-42
2022/06/06 18:23:59;;;;;;;2.08;1.23;;;;;;;;;;10365563;28;20494;-42
2022/06/06 18:29:36;;;;;;;2.45;1.27;;;;;;;;;;10365661;28;20084;-42
2022/06/06 18:34:49;;;;;;;1.40;1.30;;;;;;;;;;10359111;28;20052;-42
2022/06/06 18:40:16;;;;;;;18.70;1.75;;;;;;;;;;10389899;28;20569;-43
2022/06/06 18:45:25;;;;;;;3.40;1.48;;;;;;;;;;10368645;28;20107;-43
2022/06/06 18:50:30;;;;;;;7.82;2.00;;;;;;;;;;10365942;28;20121;-43
2022/06/06 18:55:35;;;;;;;13.07;1.63;;;;;;;;;;10375930;28;20061;-43
2022/06/06 19:00:36;;;;;;;12.02;1.67;;;;;;;;;;10367848;28;20095;-43
2022/06/06 19:05:40;;;;;;;7.43;1.60;;;;;;;;;;10367058;28;20072;-43
2022/06/06 19:10:49;;;;;;;4.95;1.65;;;;;;;;;;10369429;28;20022;-42
2022/06/06 19:16:03;;;;;;;8.10;1.60;;;;;;;;;;10367331;28;20535;-43
2022/06/06 19:21:28;;;;;;;5.20;1.40;;;;;;;;;;10369363;28;20477;-42
2022/06/06 19:26:34;;;;;;;3.25;1.65;;;;;;;;;;10343542;28;20052;-43
2022/06/06 19:32:00;;;;;;;1.48;1.27;;;;;;;;;;10368496;28;20029;-43
2022/06/06 19:37:18;;;;;;;3.28;1.30;;;;;;;;;;10358081;28;20111;-43
2022/06/06 19:42:41;;;;;;;3.65;1.20;;;;;;;;;;10373349;28;20053;-43
2022/06/06 19:47:46;;;;;;;2.97;1.17;;;;;;;;;;10370584;28;20042;-42
2022/06/06 19:52:49;;;;;;;3.40;1.38;;;;;;;;;;10374646;28;20551;-43
2022/06/06 19:57:50;;;;;;;2.35;1.40;;;;;;;;;;10369394;28;20036;-42
2022/06/06 20:02:57;;;;;;;1.65;1.30;;;;;;;;;;10368669;28;20049;-43
2022/06/06 20:08:24;;;;;;;2.95;1.08;;;;;;;;;;10373929;28;20511;-43
2022/06/06 20:13:30;;;;;;;2.90;1.50;;;;;;;;;;10381870;28;20117;-42
2022/06/06 20:18:31;;;;;;;2.80;1.40;;;;;;;;;;10368058;28;20465;-42
2022/06/06 20:23:32;;;;;;;2.53;1.10;;;;;;;;;;10366370;28;20038;-42
2022/06/06 20:28:39;;;;;;;1.20;1.10;;;;;;;;;;10371686;28;20367;-43
2022/06/06 20:33:43;;;;;;;4.25;1.75;;;;;;;;;;10375563;28;20109;-43
2022/06/06 20:39:06;;;;;;;3.25;1.38;;;;;;;;;;10359767;28;20397;-42
2022/06/06 20:44:31;;;;;;;2.30;1.20;;;;;;;;;;10357849;28;20488;-42
2022/06/06 20:49:38;;;;;;;4.30;1.23;;;;;;;;;;10376775;28;20034;-42
2022/06/06 20:54:50;;;;;;;2.90;1.20;;;;;;;;;;10389039;28;20406;-42
2022/06/06 20:59:51;;;;;;;2.55;0.98;;;;;;;;;;10368210;28;20103;-42
2022/06/06 21:04:52;;;;;;;1.38;1.10;;;;;;;;;;10376777;28;20105;-42
2022/06/06 21:09:52;;;;;;;2.53;1.30;;;;;;;;;;10366343;28;20390;-42
2022/06/06 21:14:53;;;;;;;1.08;0.98;;;;;;;;;;10381666;28;20036;-43
2022/06/06 21:19:54;;;;;;;2.05;1.40;;;;;;;;;;10370735;28;20038;-42
2022/06/06 21:24:56;;;;;;;2.30;1.27;;;;;;;;;;10375448;28;20053;-42
2022/06/06 21:29:57;;;;;;;2.67;1.30;;;;;;;;;;10374246;28;20136;-44
2022/06/06 21:34:58;;;;;;;1.70;1.20;;;;;;;;;;10373806;28;20509;-43
2022/06/06 21:39:59;;;;;;;1.70;1.38;;;;;;;;;;10370587;28;20083;-43
2022/06/06 21:44:59;;;;;;;2.38;1.70;;;;;;;;;;10373145;28;20033;-42
2022/06/06 21:50:00;;;;;;;2.78;1.20;;;;;;;;;;10375210;28;20034;-42
2022/06/06 21:55:02;;;;;;;1.15;1.05;;;;;;;;;;10375799;28;20059;-42
2022/06/06 22:00:08;;;;;;;2.38;1.20;;;;;;;;;;10371016;28;20099;-42
2022/06/06 22:05:09;;;;;;;2.65;1.25;;;;;;;;;;10370252;28;20065;-42
2022/06/06 22:10:09;;;;;;;2.60;1.10;;;;;;;;;;10375532;28;20121;-42
2022/06/06 22:15:10;;;;;;;3.03;1.27;;;;;;;;;;10370099;28;20088;-41
2022/06/06 22:20:11;;;;;;;5.95;1.20;;;;;;;;;;10366565;28;20477;-44
2022/06/06 22:25:11;;;;;;;4.32;1.20;;;;;;;;;;10374889;28;20052;-42
2022/06/06 22:30:12;;;;;;;10.48;1.67;;;;;;;;;;10373668;28;20025;-42
2022/06/06 22:35:13;;;;;;;3.58;1.33;;;;;;;;;;10365918;28;20037;-43
2022/06/06 22:40:14;;;;;;;4.75;1.10;;;;;;;;;;10365030;28;20260;-43
2022/06/06 22:45:14;;;;;;;2.05;1.27;;;;;;;;;;10373023;28;20617;-43
2022/06/06 22:50:15;;;;;;;3.42;1.65;;;;;;;;;;10364912;28;20371;-43
2022/06/06 22:55:15;;;;;;;5.10;1.73;;;;;;;;;;10372698;28;20034;-43
2022/06/06 23:00:16;;;;;;;5.20;1.10;;;;;;;;;;10384870;28;20022;-42
2022/06/06 23:05:18;;;;;;;1.95;1.15;;;;;;;;;;10370837;28;20033;-43
2022/06/06 23:10:19;;;;;;;1.52;1.05;;;;;;;;;;10374385;28;20044;-42
2022/06/06 23:15:20;;;;;;;2.05;1.10;;;;;;;;;;10357622;28;20104;-43
2022/06/06 23:20:20;;;;;;;4.47;1.00;;;;;;;;;;10369226;28;20394;-43
2022/06/06 23:25:21;;;;;;;1.80;1.27;;;;;;;;;;10366827;28;20131;-42
2022/06/06 23:30:21;;;;;;;1.10;1.00;;;;;;;;;;10369064;28;20030;-42
2022/06/06 23:35:22;;;;;;;3.22;1.02;;;;;;;;;;10366735;28;20079;-42
2022/06/06 23:40:26;;;;;;;2.25;1.02;;;;;;;;;;10381099;28;20025;-42
2022/06/06 23:51:08;;;;;;;1.80;1.05;;;;;;;;;;10369742;28;20112;-42
2022/06/06 23:56:23;;;;;;;1.10;1.00;;;;;;;;;;10359713;28;20036;-42
